createdAt,value
2022-12-18T00:00:00.367Z,13.45
2022-12-18T00:03:03.225Z,12.40
2022-12-18T00:06:07.332Z,18.90
2022-12-18T00:09:09.925Z,16.12
2022-12-18T00:15:18.810Z,12.27
2022-12-18T00:18:21.645Z,13.25
2022-12-18T00:21:24.228Z,10.38
2022-12-18T00:24:27.017Z,6.37
2022-12-18T00:27:29.524Z,14.73
2022-12-18T00:30:32.536Z,8.35
2022-12-18T00:33:35.718Z,9.13
2022-12-18T00:36:38.818Z,13.23
2022-12-18T00:39:41.364Z,11.32
2022-12-18T00:42:59.366Z,12.73
2022-12-18T00:46:02.116Z,8.32
2022-12-18T00:49:05.331Z,9.45
2022-12-18T00:52:07.789Z,5.78
2022-12-18T00:55:10.920Z,9.90
2022-12-18T00:58:14.907Z,13.17
2022-12-18T01:01:18.023Z,10.73
2022-12-18T01:04:20.759Z,10.98
2022-12-18T01:07:23.550Z,15.00
2022-12-18T01:10:26.838Z,14.57
2022-12-18T01:13:33.394Z,9.73
2022-12-18T01:16:36.037Z,4.93
2022-12-18T01:19:40.695Z,9.98
2022-12-18T01:22:44.294Z,13.90
2022-12-18T01:25:47.072Z,15.45
2022-12-18T01:28:49.927Z,27.00
2022-12-18T01:31:56.654Z,22.67
2022-12-18T01:34:59.181Z,13.43
2022-12-18T01:38:03.132Z,9.50
2022-12-18T01:41:05.565Z,9.60
2022-12-18T01:44:57.296Z,9.20
2022-12-18T01:48:03.890Z,19.17
2022-12-18T01:51:09.345Z,17.95
2022-12-18T01:54:11.871Z,19.75
2022-12-18T01:57:14.850Z,17.60
2022-12-18T02:00:20.759Z,12.87
2022-12-18T02:03:23.598Z,14.15
2022-12-18T02:06:40.018Z,20.73
2022-12-18T02:10:21.770Z,17.50
2022-12-18T02:13:38.361Z,5.00
2022-12-18T02:16:46.663Z,6.20
2022-12-18T02:19:49.458Z,6.57
2022-12-18T02:23:13.449Z,6.72
2022-12-18T02:26:32.012Z,7.78
2022-12-18T02:29:41.829Z,16.37
2022-12-18T02:32:51.798Z,11.13
2022-12-18T02:35:55.783Z,16.10
2022-12-18T02:39:00.175Z,11.07
2022-12-18T02:42:08.775Z,7.70
2022-12-18T02:45:11.740Z,19.87
2022-12-18T02:48:14.509Z,12.40
2022-12-18T02:52:06.129Z,5.32
2022-12-18T02:55:30.866Z,5.72
2022-12-18T02:58:56.008Z,13.52
2022-12-18T03:02:04.001Z,9.00
2022-12-18T03:05:32.829Z,6.57
2022-12-18T03:08:40.445Z,11.20
2022-12-18T03:12:05.390Z,13.52
2022-12-18T03:15:17.973Z,8.75
2022-12-18T03:18:52.285Z,9.25
2022-12-18T03:21:57.181Z,8.77
2022-12-18T03:25:02.237Z,6.20
2022-12-18T03:28:07.301Z,12.75
2022-12-18T03:31:12.492Z,12.05
2022-12-18T03:34:20.215Z,10.82
2022-12-18T03:37:23.428Z,10.77
2022-12-18T03:40:41.808Z,17.02
2022-12-18T03:43:51.880Z,7.28
2022-12-18T03:47:13.330Z,12.48
2022-12-18T03:50:21.768Z,4.93
2022-12-18T03:53:50.168Z,10.17
2022-12-18T03:57:00.847Z,21.77
2022-12-18T04:00:13.304Z,21.48
2022-12-18T04:03:17.641Z,23.73
2022-12-18T04:06:21.324Z,21.42
2022-12-18T04:09:24.149Z,16.87
2022-12-18T04:12:30.198Z,25.80
2022-12-18T04:15:35.782Z,29.08
2022-12-18T04:18:39.081Z,32.08
2022-12-18T04:21:41.737Z,34.03
2022-12-18T04:24:45.752Z,34.87
2022-12-18T04:27:48.791Z,27.85
2022-12-18T04:30:51.653Z,28.05
2022-12-18T04:33:55.796Z,29.40
2022-12-18T04:36:58.903Z,24.95
2022-12-18T04:40:01.996Z,27.03
2022-12-18T04:43:06.114Z,27.42
2022-12-18T04:46:09.589Z,29.63
2022-12-18T04:49:13.429Z,18.02
2022-12-18T04:52:16.254Z,19.02
2022-12-18T04:55:19.006Z,25.10
2022-12-18T04:58:21.546Z,24.00
2022-12-18T05:01:26.092Z,23.90
2022-12-18T05:04:30.737Z,22.50
2022-12-18T05:07:33.530Z,23.50
2022-12-18T05:10:38.203Z,26.80
2022-12-18T05:13:41.821Z,26.85
2022-12-18T05:16:44.640Z,26.67
2022-12-18T05:19:48.700Z,24.00
2022-12-18T05:22:52.452Z,24.45
2022-12-18T05:25:57.580Z,22.80
2022-12-18T05:29:00.072Z,25.27
2022-12-18T05:32:02.888Z,25.62
2022-12-18T05:35:06.559Z,25.10
2022-12-18T05:38:09.345Z,28.10
2022-12-18T05:41:11.981Z,29.37
2022-12-18T05:44:14.916Z,29.00
2022-12-18T05:47:17.452Z,25.30
2022-12-18T05:50:20.276Z,28.92
2022-12-18T05:53:22.849Z,28.45
2022-12-18T05:56:25.570Z,25.40
2022-12-18T05:59:28.059Z,22.77
2022-12-18T06:02:30.838Z,27.92
2022-12-18T06:05:38.244Z,18.55
2022-12-18T06:08:45.956Z,29.75
2022-12-18T06:11:49.199Z,28.67
2022-12-18T06:14:51.784Z,24.15
2022-12-18T06:17:54.558Z,27.87
2022-12-18T06:20:57.830Z,74.53
2022-12-18T06:24:01.208Z,44.10
2022-12-18T06:27:03.815Z,26.57
2022-12-18T06:30:07.409Z,28.02
2022-12-18T06:33:10.131Z,39.22
2022-12-18T06:36:13.879Z,32.33
2022-12-18T06:39:16.415Z,27.00
2022-12-18T06:42:19.330Z,30.47
2022-12-18T06:45:22.287Z,24.50
2022-12-18T06:48:25.269Z,24.60
2022-12-18T06:51:27.838Z,25.20
2022-12-18T06:54:30.622Z,23.33
2022-12-18T06:57:33.388Z,29.43
2022-12-18T07:00:36.215Z,29.52
2022-12-18T07:03:42.828Z,26.52
2022-12-18T07:06:45.998Z,24.83
2022-12-18T07:09:48.592Z,25.17
2022-12-18T07:12:51.444Z,25.10
2022-12-18T07:15:54.018Z,28.35
2022-12-18T07:18:57.564Z,22.50
2022-12-18T07:22:00.096Z,25.00
2022-12-18T07:25:02.890Z,28.23
2022-12-18T07:28:05.563Z,26.10
2022-12-18T07:31:11.705Z,31.50
2022-12-18T07:34:16.187Z,31.95
2022-12-18T07:37:19.103Z,32.05
2022-12-18T07:40:21.715Z,28.45
2022-12-18T07:43:24.582Z,35.00
2022-12-18T07:46:27.283Z,33.05
2022-12-18T07:49:30.128Z,28.27
2022-12-18T07:52:32.634Z,31.77
2022-12-18T07:55:59.906Z,32.40
2022-12-18T07:59:00.550Z,41.53
2022-12-18T08:02:04.174Z,35.63
2022-12-18T08:05:07.222Z,43.87
2022-12-18T08:08:09.820Z,32.97
2022-12-18T08:11:12.677Z,35.00
2022-12-18T08:14:15.850Z,43.23
2022-12-18T08:17:18.682Z,46.67
2022-12-18T08:20:21.169Z,35.33
2022-12-18T08:23:26.536Z,48.65
2022-12-18T08:26:32.097Z,39.13
2022-12-18T08:29:34.870Z,46.13
2022-12-18T08:32:37.565Z,35.72
2022-12-18T08:35:45.653Z,40.58
2022-12-18T08:38:48.830Z,42.83
2022-12-18T08:42:10.572Z,30.42
2022-12-18T08:45:13.175Z,35.97
2022-12-18T08:48:21.848Z,39.88
2022-12-18T08:51:24.815Z,33.78
2022-12-18T08:54:27.891Z,35.75
2022-12-18T08:57:30.518Z,31.02
2022-12-18T09:00:33.417Z,36.13
2022-12-18T09:03:36.237Z,34.47
2022-12-18T09:06:39.074Z,46.63
2022-12-18T09:09:42.079Z,40.90
2022-12-18T09:12:44.830Z,47.13
2022-12-18T09:15:50.570Z,48.40
2022-12-18T09:19:00.233Z,40.55
2022-12-18T09:22:03.215Z,40.50
2022-12-18T09:25:08.950Z,32.58
2022-12-18T09:28:13.725Z,35.60
2022-12-18T09:31:17.317Z,33.90
2022-12-18T09:34:21.999Z,35.58
2022-12-18T09:37:25.262Z,38.20
2022-12-18T09:40:30.321Z,36.92
2022-12-18T09:43:49.350Z,39.67
2022-12-18T09:46:57.248Z,32.27
2022-12-18T09:50:04.365Z,37.10
2022-12-18T09:53:25.595Z,37.45
2022-12-18T09:56:30.233Z,32.40
2022-12-18T09:59:40.825Z,40.28
2022-12-18T10:02:43.978Z,35.80
2022-12-18T10:05:49.386Z,35.15
2022-12-18T10:09:37.797Z,36.22
2022-12-18T10:12:53.602Z,33.63
2022-12-18T10:16:07.221Z,38.42
2022-12-18T10:19:29.765Z,29.77
2022-12-18T10:22:32.401Z,37.42
2022-12-18T10:25:44.198Z,35.53
2022-12-18T10:28:47.078Z,44.65
2022-12-18T10:31:49.881Z,39.92
2022-12-18T10:34:59.997Z,40.80
2022-12-18T10:38:25.188Z,35.80
2022-12-18T10:41:29.174Z,33.15
2022-12-18T10:44:32.268Z,26.83
2022-12-18T10:47:35.160Z,27.30
2022-12-18T10:51:09.663Z,38.33
2022-12-18T10:54:04.380Z,28.98
2022-12-18T10:57:30.150Z,38.92
2022-12-18T11:00:32.778Z,30.20
2022-12-18T11:03:37.252Z,24.58
2022-12-18T11:06:55.354Z,28.40
2022-12-18T11:10:04.829Z,23.05
2022-12-18T11:13:18.781Z,26.33
2022-12-18T11:16:21.881Z,32.42
2022-12-18T11:19:38.626Z,28.75
2022-12-18T11:22:41.394Z,27.57
2022-12-18T11:25:52.321Z,27.83
2022-12-18T11:29:10.097Z,37.22
2022-12-18T11:32:33.191Z,38.30
2022-12-18T11:35:47.531Z,34.00
2022-12-18T11:38:51.901Z,28.73
2022-12-18T11:42:12.532Z,31.45
2022-12-18T11:45:15.062Z,29.45
2022-12-18T11:48:25.726Z,27.87
2022-12-18T11:51:34.580Z,30.75
2022-12-18T11:54:37.432Z,27.67
2022-12-18T11:57:49.869Z,31.70
2022-12-18T12:00:58.084Z,24.40
2022-12-18T12:04:32.883Z,29.90
2022-12-18T12:07:57.360Z,26.00
2022-12-18T12:11:15.089Z,25.50
2022-12-18T12:14:23.552Z,40.25
2022-12-18T12:17:31.661Z,30.75
2022-12-18T12:20:38.067Z,29.37
2022-12-18T12:23:56.343Z,28.80
2022-12-18T12:27:10.865Z,26.77
2022-12-18T12:30:16.723Z,24.12
2022-12-18T12:33:32.606Z,24.60
2022-12-18T12:37:13.065Z,24.70
2022-12-18T12:40:49.150Z,28.30
2022-12-18T12:43:49.458Z,27.83
2022-12-18T12:46:57.489Z,28.33
2022-12-18T12:50:04.209Z,30.58
2022-12-18T12:53:10.727Z,25.67
2022-12-18T12:56:17.246Z,28.83
2022-12-18T12:59:28.445Z,28.73
2022-12-18T13:03:04.950Z,26.87
2022-12-18T13:06:17.129Z,21.42
2022-12-18T13:09:20.181Z,28.55
2022-12-18T13:12:41.869Z,30.37
2022-12-18T13:16:11.683Z,28.23
2022-12-18T13:19:23.880Z,28.62
2022-12-18T13:22:32.910Z,26.25
2022-12-18T13:25:37.296Z,26.00
2022-12-18T13:28:49.091Z,26.70
2022-12-18T13:31:51.465Z,26.07
2022-12-18T13:35:19.695Z,25.95
2022-12-18T13:38:39.011Z,26.92
2022-12-18T13:41:43.008Z,31.45
2022-12-18T13:44:45.524Z,29.77
2022-12-18T13:47:48.633Z,35.63
2022-12-18T13:51:04.558Z,30.88
2022-12-18T13:54:20.815Z,30.60
2022-12-18T13:57:39.723Z,29.45
2022-12-18T14:00:43.657Z,42.47
2022-12-18T14:03:46.543Z,37.47
2022-12-18T14:06:54.112Z,39.50
2022-12-18T14:10:06.411Z,28.20
2022-12-18T14:13:29.541Z,29.98
2022-12-18T14:16:32.997Z,26.52
2022-12-18T14:19:36.957Z,29.30
2022-12-18T14:22:44.846Z,28.73
2022-12-18T14:25:48.172Z,29.95
2022-12-18T14:28:51.186Z,35.15
2022-12-18T14:32:17.451Z,35.38
2022-12-18T14:35:20.960Z,30.33
2022-12-18T14:38:28.071Z,30.05
2022-12-18T14:41:31.043Z,54.38
2022-12-18T14:44:39.245Z,64.28
2022-12-18T14:47:47.357Z,41.17
2022-12-18T14:51:16.927Z,48.87
2022-12-18T14:54:21.408Z,34.50
2022-12-18T14:57:33.896Z,36.03
2022-12-18T15:00:42.791Z,38.40
2022-12-18T15:03:45.666Z,64.30
2022-12-18T15:06:49.777Z,62.50
2022-12-18T15:10:25.409Z,74.50
2022-12-18T15:13:28.414Z,82.82
2022-12-18T15:16:31.274Z,84.35
2022-12-18T15:19:40.142Z,74.40
2022-12-18T15:22:43.156Z,77.23
2022-12-18T15:25:47.721Z,72.18
2022-12-18T15:28:57.245Z,50.53
2022-12-18T15:32:21.314Z,52.38
2022-12-18T15:35:25.665Z,41.97
2022-12-18T15:38:28.896Z,38.83
2022-12-18T15:41:34.146Z,38.90
2022-12-18T15:44:39.161Z,41.08
2022-12-18T15:47:45.355Z,38.20
2022-12-18T15:50:48.310Z,36.00
2022-12-18T15:53:52.999Z,33.80
2022-12-18T15:57:14.531Z,40.90
2022-12-18T16:00:17.731Z,41.05
2022-12-18T16:03:20.835Z,44.70
2022-12-18T16:06:24.304Z,55.50
2022-12-18T16:09:27.637Z,47.37
2022-12-18T16:12:30.541Z,42.42
2022-12-18T16:15:33.666Z,46.80
2022-12-18T16:18:36.745Z,44.45
2022-12-18T16:21:39.942Z,45.55
2022-12-18T16:24:43.784Z,45.83
2022-12-18T16:27:46.780Z,42.15
2022-12-18T16:30:51.284Z,40.83
2022-12-18T16:34:23.473Z,47.35
2022-12-18T16:37:29.616Z,52.20
2022-12-18T16:40:33.446Z,54.70
2022-12-18T16:43:36.326Z,46.90
2022-12-18T16:46:40.207Z,44.63
2022-12-18T16:49:45.351Z,54.20
2022-12-18T16:52:48.911Z,49.28
2022-12-18T16:55:56.147Z,51.00
2022-12-18T16:59:01.155Z,60.00
2022-12-18T17:02:04.301Z,55.63
2022-12-18T17:05:07.792Z,54.45
2022-12-18T17:08:10.560Z,34.53
2022-12-18T17:11:13.674Z,36.30
2022-12-18T17:14:24.235Z,42.33
2022-12-18T17:17:27.229Z,54.85
2022-12-18T17:20:33.033Z,63.65
2022-12-18T17:23:37.634Z,39.88
2022-12-18T17:26:40.647Z,63.30
2022-12-18T17:29:47.817Z,59.38
2022-12-18T17:32:51.336Z,59.20
2022-12-18T17:35:58.810Z,57.35
2022-12-18T17:39:02.572Z,48.60
2022-12-18T17:42:06.892Z,57.30
2022-12-18T17:45:11.464Z,51.60
2022-12-18T17:48:14.376Z,46.08
2022-12-18T17:51:18.338Z,50.72
2022-12-18T17:54:21.575Z,52.42
2022-12-18T17:57:24.200Z,50.57
2022-12-18T18:00:27.261Z,50.30
2022-12-18T18:03:32.919Z,45.55
2022-12-18T18:06:38.705Z,55.65
2022-12-18T18:09:42.564Z,56.97
2022-12-18T18:13:04.227Z,38.93
2022-12-18T18:16:10.023Z,54.47
2022-12-18T18:19:18.948Z,43.85
2022-12-18T18:22:21.851Z,45.45
2022-12-18T18:25:25.967Z,59.65
2022-12-18T18:28:29.772Z,59.93
2022-12-18T18:31:35.307Z,58.38
2022-12-18T18:34:44.528Z,58.78
2022-12-18T18:37:50.394Z,57.42
2022-12-18T18:41:02.828Z,68.45
2022-12-18T18:44:05.790Z,68.40
2022-12-18T18:47:09.747Z,53.83
2022-12-18T18:50:13.075Z,33.97
2022-12-18T18:53:16.023Z,52.00
2022-12-18T18:59:44.228Z,49.63
2022-12-18T19:02:48.274Z,50.33
2022-12-18T19:05:57.343Z,50.03
2022-12-18T19:09:02.023Z,59.53
2022-12-18T19:12:24.203Z,36.17
2022-12-18T19:15:26.962Z,59.20
2022-12-18T19:18:30.988Z,58.78
2022-12-18T19:21:34.853Z,47.62
2022-12-18T19:24:38.441Z,63.55
2022-12-18T19:27:41.255Z,56.63
2022-12-18T19:30:44.766Z,41.57
2022-12-18T19:33:48.221Z,54.63
2022-12-18T19:36:55.260Z,51.88
2022-12-18T19:40:06.680Z,47.70
2022-12-18T19:43:16.032Z,45.28
2022-12-18T19:46:20.966Z,39.33
2022-12-18T19:49:23.804Z,29.75
2022-12-18T19:52:26.918Z,50.40
2022-12-18T19:55:30.065Z,54.75
2022-12-18T19:58:36.800Z,46.08
2022-12-18T20:01:40.192Z,52.00
2022-12-18T20:04:43.107Z,40.60
2022-12-18T20:07:45.733Z,44.13
2022-12-18T20:10:49.121Z,47.85
2022-12-18T20:13:52.505Z,53.00
2022-12-18T20:16:55.354Z,46.37
2022-12-18T20:19:58.393Z,20.42
2022-12-18T20:23:01.538Z,49.70
2022-12-18T20:26:04.471Z,44.55
2022-12-18T20:29:09.887Z,29.30
2022-12-18T20:32:12.724Z,48.43
2022-12-18T20:35:15.864Z,46.97
2022-12-18T20:38:19.224Z,54.25
2022-12-18T20:41:23.612Z,54.63
2022-12-18T20:44:26.817Z,53.87
2022-12-18T20:47:29.831Z,64.83
2022-12-18T20:50:32.830Z,29.23
2022-12-18T20:53:36.362Z,35.83
2022-12-18T20:56:40.104Z,25.88
2022-12-18T20:59:47.903Z,37.35
2022-12-18T21:02:50.986Z,52.37
2022-12-18T21:05:53.875Z,42.75
2022-12-18T21:08:57.407Z,55.72
2022-12-18T21:12:18.590Z,61.85
2022-12-18T21:15:28.205Z,50.25
2022-12-18T21:18:31.399Z,54.87
2022-12-18T21:21:35.894Z,56.97
2022-12-18T21:24:41.532Z,56.30
2022-12-18T21:27:44.272Z,93.45
2022-12-18T21:30:47.449Z,81.82
2022-12-18T21:33:50.498Z,48.77
2022-12-18T21:36:57.442Z,65.18
2022-12-18T21:39:59.975Z,68.60
2022-12-18T21:43:21.421Z,50.55
2022-12-18T21:46:23.978Z,43.83
2022-12-18T21:49:27.170Z,42.30
2022-12-18T21:52:31.900Z,53.38
2022-12-18T21:55:35.127Z,57.08
2022-12-18T21:58:37.831Z,52.95
2022-12-18T22:01:40.716Z,60.05
2022-12-18T22:04:44.522Z,42.47
2022-12-18T22:07:47.278Z,51.80
2022-12-18T22:10:50.149Z,51.22
2022-12-18T22:13:52.901Z,46.00
2022-12-18T22:16:58.803Z,28.90
2022-12-18T22:20:02.329Z,53.80
2022-12-18T22:23:06.034Z,50.30
2022-12-18T22:26:10.826Z,17.20
2022-12-18T22:29:54.327Z,37.60
2022-12-18T22:32:56.872Z,51.35
2022-12-18T22:36:06.062Z,44.27
2022-12-18T22:39:12.355Z,21.52
2022-12-18T22:42:15.154Z,49.13
2022-12-18T22:45:17.648Z,48.67
2022-12-18T22:48:20.487Z,26.95
2022-12-18T22:51:23.039Z,49.73
2022-12-18T22:54:25.994Z,42.25
2022-12-18T22:57:28.580Z,42.03
2022-12-18T23:00:31.877Z,38.85
2022-12-18T23:03:34.600Z,23.75
2022-12-18T23:06:37.388Z,24.63
2022-12-18T23:09:40.487Z,35.38
2022-12-18T23:12:43.719Z,41.60
2022-12-18T23:15:47.406Z,31.92
2022-12-18T23:18:54.822Z,27.58
2022-12-18T23:21:58.828Z,33.87
2022-12-18T23:25:01.674Z,38.72
2022-12-18T23:28:04.428Z,50.33
2022-12-18T23:31:10.975Z,49.30
2022-12-18T23:34:15.098Z,37.92
2022-12-18T23:37:29.947Z,43.70
2022-12-18T23:40:40.473Z,19.75
2022-12-18T23:43:43.271Z,29.48
2022-12-18T23:46:47.091Z,48.60
2022-12-18T23:49:49.857Z,30.35
2022-12-18T23:52:52.475Z,48.63
2022-12-18T23:55:58.459Z,47.70
2022-12-18T23:59:02.214Z,25.40
